sensor_id;sensor_type;location;lat;lon;timestamp;pressure;altitude;pressure_sealevel;temperature;humidity
40850;BME280;26571;41.610;25.380;2022-07-03T00:01:38;98585.00;;;23.44;54.91
40850;BME280;26571;41.610;25.380;2022-07-03T00:04:04;98633.72;;;23.64;55.11
40850;BME280;26571;41.610;25.380;2022-07-03T00:06:31;98627.88;;;23.67;55.14
40850;BME280;26571;41.610;25.380;2022-07-03T00:08:58;98628.34;;;23.64;55.19
40850;BME280;26571;41.610;25.380;2022-07-03T00:11:24;98619.22;;;23.65;55.34
40850;BME280;26571;41.610;25.380;2022-07-03T00:13:50;98621.00;;;23.60;55.76
40850;BME280;26571;41.610;25.380;2022-07-03T00:16:15;98615.53;;;23.55;55.67
40850;BME280;26571;41.610;25.380;2022-07-03T00:18:42;98609.53;;;23.47;55.96
40850;BME280;26571;41.610;25.380;2022-07-03T00:21:09;98602.28;;;23.31;56.45
40850;BME280;26571;41.610;25.380;2022-07-03T00:26:24;98569.88;;;23.04;56.97
40850;BME280;26571;41.610;25.380;2022-07-03T00:28:50;98622.13;;;23.30;57.16
40850;BME280;26571;41.610;25.380;2022-07-03T00:31:16;98625.16;;;23.34;57.14
40850;BME280;26571;41.610;25.380;2022-07-03T00:33:42;98626.88;;;23.23;57.45
40850;BME280;26571;41.610;25.380;2022-07-03T00:36:08;98620.91;;;23.21;57.37
40850;BME280;26571;41.610;25.380;2022-07-03T00:38:34;98609.78;;;23.12;57.76
40850;BME280;26571;41.610;25.380;2022-07-03T00:41:02;98581.75;;;22.91;57.72
40850;BME280;26571;41.610;25.380;2022-07-03T00:43:28;98612.84;;;23.04;58.15
40850;BME280;26571;41.610;25.380;2022-07-03T00:45:53;98620.19;;;23.09;57.99
40850;BME280;26571;41.610;25.380;2022-07-03T00:48:20;98566.50;;;22.80;57.90
40850;BME280;26571;41.610;25.380;2022-07-03T00:50:51;98609.91;;;23.06;57.85
40850;BME280;26571;41.610;25.380;2022-07-03T00:53:42;98613.41;;;23.06;57.96
40850;BME280;26571;41.610;25.380;2022-07-03T00:56:13;98608.28;;;23.05;57.84
40850;BME280;26571;41.610;25.380;2022-07-03T00:58:40;98607.66;;;22.98;58.12
40850;BME280;26571;41.610;25.380;2022-07-03T01:01:06;98601.44;;;22.97;58.14
40850;BME280;26571;41.610;25.380;2022-07-03T01:03:34;98607.41;;;22.99;58.14
40850;BME280;26571;41.610;25.380;2022-07-03T01:06:10;98606.31;;;23.00;57.95
40850;BME280;26571;41.610;25.380;2022-07-03T01:08:49;98607.94;;;23.01;57.83
40850;BME280;26571;41.610;25.380;2022-07-03T01:16:56;98596.75;;;23.04;57.64
40850;BME280;26571;41.610;25.380;2022-07-03T01:27:56;98600.41;;;22.86;58.72
40850;BME280;26571;41.610;25.380;2022-07-03T01:30:30;98601.94;;;22.82;58.54
40850;BME280;26571;41.610;25.380;2022-07-03T01:33:03;98602.69;;;22.78;58.59
40850;BME280;26571;41.610;25.380;2022-07-03T01:35:41;98593.97;;;22.70;58.91
40850;BME280;26571;41.610;25.380;2022-07-03T01:38:13;98607.53;;;22.64;58.84
40850;BME280;26571;41.610;25.380;2022-07-03T01:40:41;98606.38;;;22.60;59.07
40850;BME280;26571;41.610;25.380;2022-07-03T01:43:09;98606.13;;;22.61;59.34
40850;BME280;26571;41.610;25.380;2022-07-03T01:45:38;98603.34;;;22.56;59.66
40850;BME280;26571;41.610;25.380;2022-07-03T01:48:06;98602.09;;;22.47;59.98
40850;BME280;26571;41.610;25.380;2022-07-03T01:50:31;98599.91;;;22.44;60.26
40850;BME280;26571;41.610;25.380;2022-07-03T01:53:00;98595.63;;;22.43;60.31
40850;BME280;26571;41.610;25.380;2022-07-03T01:55:30;98597.22;;;22.44;60.41
40850;BME280;26571;41.610;25.380;2022-07-03T01:57:57;98567.25;;;22.18;60.80
40850;BME280;26571;41.610;25.380;2022-07-03T02:00:22;98556.50;;;22.18;60.75
40850;BME280;26571;41.610;25.380;2022-07-03T02:02:55;98601.44;;;22.40;60.80
40850;BME280;26571;41.610;25.380;2022-07-03T02:05:41;98595.50;;;22.38;60.86
40850;BME280;26571;41.610;25.380;2022-07-03T02:08:50;98589.56;;;22.36;60.88
40850;BME280;26571;41.610;25.380;2022-07-03T02:11:19;98594.25;;;22.29;60.91
40850;BME280;26571;41.610;25.380;2022-07-03T02:16:54;98604.16;;;22.28;61.06
40850;BME280;26571;41.610;25.380;2022-07-03T02:22:08;98579.00;;;22.06;61.10
40850;BME280;26571;41.610;25.380;2022-07-03T02:24:44;98607.88;;;22.27;60.77
40850;BME280;26571;41.610;25.380;2022-07-03T02:27:16;98563.72;;;22.06;60.79
40850;BME280;26571;41.610;25.380;2022-07-03T02:29:59;98594.16;;;22.24;60.80
40850;BME280;26571;41.610;25.380;2022-07-03T02:32:28;98606.41;;;22.19;61.02
40850;BME280;26571;41.610;25.380;2022-07-03T02:35:04;98604.78;;;22.18;60.92
40850;BME280;26571;41.610;25.380;2022-07-03T02:37:33;98604.44;;;22.15;61.14
40850;BME280;26571;41.610;25.380;2022-07-03T02:40:04;98612.94;;;22.00;61.34
40850;BME280;26571;41.610;25.380;2022-07-03T02:42:52;98609.91;;;22.08;61.36
40850;BME280;26571;41.610;25.380;2022-07-03T02:45:21;98611.97;;;22.06;61.34
40850;BME280;26571;41.610;25.380;2022-07-03T02:48:04;98607.69;;;22.05;61.33
40850;BME280;26571;41.610;25.380;2022-07-03T02:50:31;98616.19;;;22.02;61.27
40850;BME280;26571;41.610;25.380;2022-07-03T02:53:04;98614.09;;;22.04;61.49
40850;BME280;26571;41.610;25.380;2022-07-03T02:55:41;98604.78;;;21.95;61.53
40850;BME280;26571;41.610;25.380;2022-07-03T03:03:37;98619.91;;;22.01;61.32
40850;BME280;26571;41.610;25.380;2022-07-03T03:06:12;98621.44;;;21.97;61.45
40850;BME280;26571;41.610;25.380;2022-07-03T03:08:49;98635.19;;;22.01;61.52
40850;BME280;26571;41.610;25.380;2022-07-03T03:14:08;98624.56;;;22.06;61.40
40850;BME280;26571;41.610;25.380;2022-07-03T03:16:36;98629.69;;;22.07;61.34
40850;BME280;26571;41.610;25.380;2022-07-03T03:19:01;98621.78;;;22.12;61.20
40850;BME280;26571;41.610;25.380;2022-07-03T03:21:31;98621.31;;;22.15;60.84
40850;BME280;26571;41.610;25.380;2022-07-03T03:23:58;98621.09;;;22.17;61.29
40850;BME280;26571;41.610;25.380;2022-07-03T03:26:27;98626.56;;;22.22;60.80
40850;BME280;26571;41.610;25.380;2022-07-03T03:28:58;98625.53;;;22.23;60.49
40850;BME280;26571;41.610;25.380;2022-07-03T03:31:24;98615.81;;;22.34;60.58
40850;BME280;26571;41.610;25.380;2022-07-03T03:33:51;98620.91;;;23.04;58.88
40850;BME280;26571;41.610;25.380;2022-07-03T03:36:18;98630.78;;;24.05;55.96
40850;BME280;26571;41.610;25.380;2022-07-03T03:38:43;98629.97;;;25.19;51.91
40850;BME280;26571;41.610;25.380;2022-07-03T03:41:09;98624.97;;;26.17;49.52
40850;BME280;26571;41.610;25.380;2022-07-03T03:43:35;98627.19;;;27.19;46.59
40850;BME280;26571;41.610;25.380;2022-07-03T03:46:02;98627.06;;;28.21;43.90
40850;BME280;26571;41.610;25.380;2022-07-03T03:48:28;98626.28;;;29.19;41.54
40850;BME280;26571;41.610;25.380;2022-07-03T03:50:57;98622.69;;;30.11;39.68
40850;BME280;26571;41.610;25.380;2022-07-03T03:53:27;98624.38;;;30.93;37.51
40850;BME280;26571;41.610;25.380;2022-07-03T03:56:13;98622.44;;;31.63;35.87
40850;BME280;26571;41.610;25.380;2022-07-03T03:58:42;98623.13;;;32.29;35.01
40850;BME280;26571;41.610;25.380;2022-07-03T04:01:09;98636.47;;;32.95;34.07
40850;BME280;26571;41.610;25.380;2022-07-03T04:03:36;98624.56;;;33.58;32.58
40850;BME280;26571;41.610;25.380;2022-07-03T04:06:02;98631.59;;;34.21;31.98
40850;BME280;26571;41.610;25.380;2022-07-03T04:08:28;98629.81;;;34.65;30.97
40850;BME280;26571;41.610;25.380;2022-07-03T04:10:54;98622.44;;;35.09;30.44
40850;BME280;26571;41.610;25.380;2022-07-03T04:13:20;98635.31;;;35.52;29.47
40850;BME280;26571;41.610;25.380;2022-07-03T04:15:45;98638.75;;;35.95;28.78
40850;BME280;26571;41.610;25.380;2022-07-03T04:18:11;98632.94;;;36.27;28.19
40850;BME280;26571;41.610;25.380;2022-07-03T04:20:37;98632.59;;;36.58;27.52
40850;BME280;26571;41.610;25.380;2022-07-03T04:23:02;98626.81;;;36.80;27.57
40850;BME280;26571;41.610;25.380;2022-07-03T04:25:28;98627.28;;;36.82;27.22
40850;BME280;26571;41.610;25.380;2022-07-03T04:27:53;98633.56;;;36.83;27.08
40850;BME280;26571;41.610;25.380;2022-07-03T04:30:18;98626.59;;;36.85;27.23
40850;BME280;26571;41.610;25.380;2022-07-03T04:32:44;98633.81;;;36.69;27.43
40850;BME280;26571;41.610;25.380;2022-07-03T04:35:10;98628.06;;;36.62;27.28
40850;BME280;26571;41.610;25.380;2022-07-03T04:37:36;98628.16;;;36.44;27.46
40850;BME280;26571;41.610;25.380;2022-07-03T04:40:01;98626.66;;;36.26;27.98
40850;BME280;26571;41.610;25.380;2022-07-03T04:42:27;98628.69;;;35.99;28.52
40850;BME280;26571;41.610;25.380;2022-07-03T04:44:52;98630.06;;;35.76;28.57
40850;BME280;26571;41.610;25.380;2022-07-03T04:47:18;98633.84;;;35.37;28.80
40850;BME280;26571;41.610;25.380;2022-07-03T04:49:44;98632.91;;;34.98;29.28
40850;BME280;26571;41.610;25.380;2022-07-03T04:52:10;98589.53;;;34.39;30.43
40850;BME280;26571;41.610;25.380;2022-07-03T04:54:35;98638.34;;;34.15;30.16
40850;BME280;26571;41.610;25.380;2022-07-03T04:57:01;98637.38;;;33.80;30.58
40850;BME280;26571;41.610;25.380;2022-07-03T04:59:27;98639.94;;;33.31;31.80
40850;BME280;26571;41.610;25.380;2022-07-03T05:01:52;98623.63;;;32.81;32.58
40850;BME280;26571;41.610;25.380;2022-07-03T05:04:18;98636.22;;;32.27;33.49
40850;BME280;26571;41.610;25.380;2022-07-03T05:06:43;98632.50;;;31.96;34.16
40850;BME280;26571;41.610;25.380;2022-07-03T05:09:09;98624.75;;;31.56;34.48
40850;BME280;26571;41.610;25.380;2022-07-03T05:11:34;98628.22;;;31.29;34.56
40850;BME280;26571;41.610;25.380;2022-07-03T05:14:03;98595.25;;;30.79;35.81
40850;BME280;26571;41.610;25.380;2022-07-03T05:16:30;98611.13;;;30.67;35.78
40850;BME280;26571;41.610;25.380;2022-07-03T05:18:56;98625.47;;;30.54;35.79
40850;BME280;26571;41.610;25.380;2022-07-03T05:21:21;98624.38;;;30.55;36.21
40850;BME280;26571;41.610;25.380;2022-07-03T05:23:46;98620.56;;;30.32;37.13
40850;BME280;26571;41.610;25.380;2022-07-03T05:26:12;98586.72;;;30.00;37.43
40850;BME280;26571;41.610;25.380;2022-07-03T05:28:37;98623.66;;;30.25;37.29
40850;BME280;26571;41.610;25.380;2022-07-03T05:31:03;98618.72;;;30.27;35.74
40850;BME280;26571;41.610;25.380;2022-07-03T05:33:28;98627.84;;;30.36;37.28
40850;BME280;26571;41.610;25.380;2022-07-03T05:35:55;98626.13;;;30.22;38.11
40850;BME280;26571;41.610;25.380;2022-07-03T05:38:21;98624.28;;;30.17;37.29
40850;BME280;26571;41.610;25.380;2022-07-03T05:41:05;98601.03;;;30.06;37.28
40850;BME280;26571;41.610;25.380;2022-07-03T05:43:30;98620.06;;;30.30;37.70
40850;BME280;26571;41.610;25.380;2022-07-03T05:45:56;98628.81;;;30.46;38.29
40850;BME280;26571;41.610;25.380;2022-07-03T05:48:21;98628.19;;;30.54;37.83
40850;BME280;26571;41.610;25.380;2022-07-03T05:50:47;98625.91;;;30.61;37.15
40850;BME280;26571;41.610;25.380;2022-07-03T05:53:12;98625.41;;;30.59;37.35
40850;BME280;26571;41.610;25.380;2022-07-03T05:55:38;98624.28;;;30.60;37.31
40850;BME280;26571;41.610;25.380;2022-07-03T05:58:03;98627.25;;;30.63;37.79
40850;BME280;26571;41.610;25.380;2022-07-03T06:00:28;98618.63;;;30.56;37.02
40850;BME280;26571;41.610;25.380;2022-07-03T06:02:54;98617.75;;;30.61;37.74
40850;BME280;26571;41.610;25.380;2022-07-03T06:05:20;98624.09;;;30.75;37.84
40850;BME280;26571;41.610;25.380;2022-07-03T06:07:45;98620.06;;;30.73;37.07
40850;BME280;26571;41.610;25.380;2022-07-03T06:10:10;98622.31;;;30.66;38.14
40850;BME280;26571;41.610;25.380;2022-07-03T06:12:36;98620.91;;;30.68;38.87
40850;BME280;26571;41.610;25.380;2022-07-03T06:15:01;98608.41;;;30.67;37.99
40850;BME280;26571;41.610;25.380;2022-07-03T06:17:27;98615.38;;;30.78;39.23
40850;BME280;26571;41.610;25.380;2022-07-03T06:19:52;98613.59;;;30.87;37.58
40850;BME280;26571;41.610;25.380;2022-07-03T06:22:18;98613.16;;;30.80;37.03
40850;BME280;26571;41.610;25.380;2022-07-03T06:24:43;98613.38;;;30.84;37.96
40850;BME280;26571;41.610;25.380;2022-07-03T06:27:08;98596.44;;;30.68;37.35
40850;BME280;26571;41.610;25.380;2022-07-03T06:29:34;98610.88;;;30.87;37.41
40850;BME280;26571;41.610;25.380;2022-07-03T06:31:59;98608.28;;;30.96;37.84
40850;BME280;26571;41.610;25.380;2022-07-03T06:34:25;98589.50;;;30.81;36.99
40850;BME280;26571;41.610;25.380;2022-07-03T06:36:50;98608.00;;;30.98;37.59
40850;BME280;26571;41.610;25.380;2022-07-03T06:39:16;98610.66;;;30.84;36.94
40850;BME280;26571;41.610;25.380;2022-07-03T06:41:41;98602.34;;;30.94;37.34
40850;BME280;26571;41.610;25.380;2022-07-03T06:44:07;98600.94;;;30.97;37.01
40850;BME280;26571;41.610;25.380;2022-07-03T06:46:32;98578.16;;;30.93;37.81
40850;BME280;26571;41.610;25.380;2022-07-03T06:48:58;98587.19;;;31.07;37.34
40850;BME280;26571;41.610;25.380;2022-07-03T06:51:23;98610.31;;;31.23;36.46
40850;BME280;26571;41.610;25.380;2022-07-03T06:53:49;98601.72;;;31.16;36.60
40850;BME280;26571;41.610;25.380;2022-07-03T06:56:14;98611.13;;;31.24;37.40
40850;BME280;26571;41.610;25.380;2022-07-03T06:58:40;98601.22;;;31.33;36.06
40850;BME280;26571;41.610;25.380;2022-07-03T07:01:05;98600.53;;;31.22;36.34
40850;BME280;26571;41.610;25.380;2022-07-03T07:03:30;98599.34;;;30.96;36.61
40850;BME280;26571;41.610;25.380;2022-07-03T07:05:56;98611.47;;;30.84;37.19
40850;BME280;26571;41.610;25.380;2022-07-03T07:08:22;98611.47;;;30.84;37.52
40850;BME280;26571;41.610;25.380;2022-07-03T07:10:47;98604.28;;;30.94;37.73
40850;BME280;26571;41.610;25.380;2022-07-03T07:13:14;98598.16;;;31.02;36.76
40850;BME280;26571;41.610;25.380;2022-07-03T07:15:39;98602.13;;;31.28;37.85
40850;BME280;26571;41.610;25.380;2022-07-03T07:18:05;98595.16;;;31.36;35.30
40850;BME280;26571;41.610;25.380;2022-07-03T07:20:30;98595.41;;;31.53;35.41
40850;BME280;26571;41.610;25.380;2022-07-03T07:22:55;98592.28;;;31.60;34.97
40850;BME280;26571;41.610;25.380;2022-07-03T07:25:21;98594.34;;;31.68;33.71
40850;BME280;26571;41.610;25.380;2022-07-03T07:27:46;98516.41;;;31.26;33.13
40850;BME280;26571;41.610;25.380;2022-07-03T07:30:13;98599.13;;;32.04;32.21
40850;BME280;26571;41.610;25.380;2022-07-03T07:32:38;98602.97;;;32.03;32.39
40850;BME280;26571;41.610;25.380;2022-07-03T07:35:04;98594.25;;;32.14;32.67
40850;BME280;26571;41.610;25.380;2022-07-03T07:37:30;98599.72;;;32.28;32.77
40850;BME280;26571;41.610;25.380;2022-07-03T07:39:55;98605.06;;;32.33;32.04
40850;BME280;26571;41.610;25.380;2022-07-03T07:42:21;98598.91;;;32.41;32.11
40850;BME280;26571;41.610;25.380;2022-07-03T07:44:46;98608.72;;;32.42;32.94
40850;BME280;26571;41.610;25.380;2022-07-03T07:47:12;98579.53;;;32.29;32.43
40850;BME280;26571;41.610;25.380;2022-07-03T07:49:37;98605.53;;;32.35;31.46
40850;BME280;26571;41.610;25.380;2022-07-03T07:52:03;98602.25;;;32.38;32.11
40850;BME280;26571;41.610;25.380;2022-07-03T07:54:29;98565.81;;;32.07;30.70
40850;BME280;26571;41.610;25.380;2022-07-03T07:56:54;98591.53;;;32.28;31.48
40850;BME280;26571;41.610;25.380;2022-07-03T07:59:19;98600.31;;;32.11;30.72
40850;BME280;26571;41.610;25.380;2022-07-03T08:01:45;98598.09;;;32.00;32.56
40850;BME280;26571;41.610;25.380;2022-07-03T08:04:29;98512.75;;;31.49;31.68
40850;BME280;26571;41.610;25.380;2022-07-03T08:07:13;98604.03;;;32.02;32.40
40850;BME280;26571;41.610;25.380;2022-07-03T08:09:38;98604.03;;;32.02;33.07
40850;BME280;26571;41.610;25.380;2022-07-03T08:12:04;98597.31;;;31.99;33.61
40850;BME280;26571;41.610;25.380;2022-07-03T08:14:30;98598.69;;;31.97;33.38
40850;BME280;26571;41.610;25.380;2022-07-03T08:16:55;98596.28;;;32.09;33.47
40850;BME280;26571;41.610;25.380;2022-07-03T08:19:20;98596.66;;;32.30;33.86
40850;BME280;26571;41.610;25.380;2022-07-03T08:21:46;98593.16;;;32.43;32.37
40850;BME280;26571;41.610;25.380;2022-07-03T08:24:11;98593.22;;;32.52;31.37
40850;BME280;26571;41.610;25.380;2022-07-03T08:26:38;98602.16;;;32.66;31.84
40850;BME280;26571;41.610;25.380;2022-07-03T08:29:03;98601.72;;;32.50;31.00
40850;BME280;26571;41.610;25.380;2022-07-03T08:31:29;98595.44;;;32.50;31.83
40850;BME280;26571;41.610;25.380;2022-07-03T08:33:54;98569.41;;;32.30;31.10
40850;BME280;26571;41.610;25.380;2022-07-03T08:36:20;98575.06;;;32.33;32.03
40850;BME280;26571;41.610;25.380;2022-07-03T08:38:45;98586.16;;;32.51;31.83
40850;BME280;26571;41.610;25.380;2022-07-03T08:41:12;98586.56;;;32.58;31.62
40850;BME280;26571;41.610;25.380;2022-07-03T08:43:39;98593.22;;;32.52;31.72
40850;BME280;26571;41.610;25.380;2022-07-03T08:46:07;98598.09;;;32.41;32.76
40850;BME280;26571;41.610;25.380;2022-07-03T08:48:35;98601.53;;;32.33;31.70
40850;BME280;26571;41.610;25.380;2022-07-03T08:51:02;98594.25;;;32.28;32.02
40850;BME280;26571;41.610;25.380;2022-07-03T08:53:28;98591.53;;;32.28;33.00
40850;BME280;26571;41.610;25.380;2022-07-03T08:55:53;98550.56;;;32.20;32.74
40850;BME280;26571;41.610;25.380;2022-07-03T08:58:21;98559.81;;;32.32;32.57
40850;BME280;26571;41.610;25.380;2022-07-03T09:00:48;98582.47;;;32.19;32.62
40850;BME280;26571;41.610;25.380;2022-07-03T09:03:14;98589.91;;;32.27;32.14
40850;BME280;26571;41.610;25.380;2022-07-03T09:05:39;98581.31;;;32.34;33.32
40850;BME280;26571;41.610;25.380;2022-07-03T09:08:06;98587.72;;;32.43;32.66
40850;BME280;26571;41.610;25.380;2022-07-03T09:10:33;98571.47;;;32.38;31.55
40850;BME280;26571;41.610;25.380;2022-07-03T09:12:58;98586.69;;;32.53;31.06
40850;BME280;26571;41.610;25.380;2022-07-03T09:15:23;98582.72;;;32.31;31.42
40850;BME280;26571;41.610;25.380;2022-07-03T09:18:03;98586.69;;;32.25;32.60
40850;BME280;26571;41.610;25.380;2022-07-03T09:20:32;98584.66;;;32.45;33.47
40850;BME280;26571;41.610;25.380;2022-07-03T09:23:20;98579.88;;;32.64;31.62
40850;BME280;26571;41.610;25.380;2022-07-03T09:25:58;98582.56;;;32.78;32.05
40850;BME280;26571;41.610;25.380;2022-07-03T09:31:21;98580.59;;;32.92;30.36
40850;BME280;26571;41.610;25.380;2022-07-03T09:34:07;98575.13;;;32.92;30.12
40850;BME280;26571;41.610;25.380;2022-07-03T09:39:25;98569.84;;;32.73;30.62
40850;BME280;26571;41.610;25.380;2022-07-03T09:41:52;98565.00;;;32.70;30.56
40850;BME280;26571;41.610;25.380;2022-07-03T09:44:37;98574.31;;;32.69;31.62
40850;BME280;26571;41.610;25.380;2022-07-03T09:52:38;98570.94;;;32.72;32.10
40850;BME280;26571;41.610;25.380;2022-07-03T10:00:24;98555.41;;;32.73;31.57
40850;BME280;26571;41.610;25.380;2022-07-03T10:05:34;98555.50;;;32.45;31.79
40850;BME280;26571;41.610;25.380;2022-07-03T10:10:31;98555.28;;;32.41;31.45
40850;BME280;26571;41.610;25.380;2022-07-03T10:12:57;98561.66;;;32.37;31.73
40850;BME280;26571;41.610;25.380;2022-07-03T10:15:24;98561.69;;;31.96;31.64
40850;BME280;26571;41.610;25.380;2022-07-03T10:17:52;98554.53;;;31.86;31.81
40850;BME280;26571;41.610;25.380;2022-07-03T10:22:53;98556.13;;;32.01;32.73
40850;BME280;26571;41.610;25.380;2022-07-03T10:25:19;98522.38;;;31.88;32.51
40850;BME280;26571;41.610;25.380;2022-07-03T10:27:45;98554.91;;;32.07;32.36
40850;BME280;26571;41.610;25.380;2022-07-03T10:30:15;98541.97;;;32.26;32.14
40850;BME280;26571;41.610;25.380;2022-07-03T10:32:45;98551.66;;;32.32;31.35
40850;BME280;26571;41.610;25.380;2022-07-03T10:35:14;98540.97;;;32.22;31.96
40850;BME280;26571;41.610;25.380;2022-07-03T10:37:52;98544.13;;;32.15;33.39
40850;BME280;26571;41.610;25.380;2022-07-03T10:43:37;98537.88;;;32.65;32.85
40850;BME280;26571;41.610;25.380;2022-07-03T10:46:22;98536.50;;;32.54;31.77
40850;BME280;26571;41.610;25.380;2022-07-03T10:49:12;98538.34;;;32.17;33.70
40850;BME280;26571;41.610;25.380;2022-07-03T10:54:29;98529.47;;;32.25;31.92
40850;BME280;26571;41.610;25.380;2022-07-03T11:02:21;98528.88;;;32.28;32.83
40850;BME280;26571;41.610;25.380;2022-07-03T11:07:29;98527.22;;;32.27;32.58
40850;BME280;26571;41.610;25.380;2022-07-03T11:15:54;98509.47;;;32.30;32.15
40850;BME280;26571;41.610;25.380;2022-07-03T11:18:24;98505.31;;;32.32;31.60
40850;BME280;26571;41.610;25.380;2022-07-03T11:26:00;98503.78;;;32.54;32.32
40850;BME280;26571;41.610;25.380;2022-07-03T11:38:43;98485.34;;;32.73;32.14
40850;BME280;26571;41.610;25.380;2022-07-03T11:41:10;98497.44;;;32.67;32.18
40850;BME280;26571;41.610;25.380;2022-07-03T11:43:37;98479.63;;;32.61;31.67
40850;BME280;26571;41.610;25.380;2022-07-03T11:46:04;98490.53;;;32.25;32.36
40850;BME280;26571;41.610;25.380;2022-07-03T11:48:31;98479.34;;;32.12;32.35
40850;BME280;26571;41.610;25.380;2022-07-03T11:51:03;98487.50;;;32.12;31.59
40850;BME280;26571;41.610;25.380;2022-07-03T11:53:34;98484.38;;;32.19;33.06
40850;BME280;26571;41.610;25.380;2022-07-03T11:56:09;98484.16;;;32.29;32.17
40850;BME280;26571;41.610;25.380;2022-07-03T11:58:48;98474.94;;;32.03;30.36
40850;BME280;26571;41.610;25.380;2022-07-03T12:04:03;98464.44;;;32.10;32.48
40850;BME280;26571;41.610;25.380;2022-07-03T12:06:39;98465.34;;;32.05;32.20
40850;BME280;26571;41.610;25.380;2022-07-03T12:11:38;98467.00;;;31.65;31.91
40850;BME280;26571;41.610;25.380;2022-07-03T12:14:03;98460.53;;;31.75;31.32
40850;BME280;26571;41.610;25.380;2022-07-03T12:16:33;98439.56;;;31.48;31.24
40850;BME280;26571;41.610;25.380;2022-07-03T12:19:04;98464.56;;;31.77;32.51
40850;BME280;26571;41.610;25.380;2022-07-03T12:21:38;98457.72;;;31.94;32.36
40850;BME280;26571;41.610;25.380;2022-07-03T12:24:13;98451.03;;;32.00;31.87
40850;BME280;26571;41.610;25.380;2022-07-03T12:26:39;98454.69;;;31.81;29.81
40850;BME280;26571;41.610;25.380;2022-07-03T12:29:08;98450.66;;;31.65;30.87
40850;BME280;26571;41.610;25.380;2022-07-03T12:31:33;98419.66;;;31.38;30.82
40850;BME280;26571;41.610;25.380;2022-07-03T12:34:00;98425.47;;;31.46;31.41
40850;BME280;26571;41.610;25.380;2022-07-03T12:36:26;98424.88;;;31.49;30.71
40850;BME280;26571;41.610;25.380;2022-07-03T12:38:53;98413.69;;;31.36;31.46
40850;BME280;26571;41.610;25.380;2022-07-03T12:41:19;98430.72;;;31.56;31.81
40850;BME280;26571;41.610;25.380;2022-07-03T12:43:48;98430.31;;;31.49;32.28
40850;BME280;26571;41.610;25.380;2022-07-03T12:48:51;98428.69;;;31.20;32.41
40850;BME280;26571;41.610;25.380;2022-07-03T12:51:53;98433.50;;;31.09;32.52
40850;BME280;26571;41.610;25.380;2022-07-03T12:54:33;98430.28;;;30.94;32.89
40850;BME280;26571;41.610;25.380;2022-07-03T12:57:09;98427.84;;;31.06;32.36
40850;BME280;26571;41.610;25.380;2022-07-03T13:00:13;98420.00;;;31.04;32.23
40850;BME280;26571;41.610;25.380;2022-07-03T13:02:43;98407.91;;;30.97;32.52
40850;BME280;26571;41.610;25.380;2022-07-03T13:05:22;98415.31;;;30.77;32.97
40850;BME280;26571;41.610;25.380;2022-07-03T13:07:52;98412.91;;;30.57;32.30
40850;BME280;26571;41.610;25.380;2022-07-03T13:10:20;98416.88;;;30.64;33.74
40850;BME280;26571;41.610;25.380;2022-07-03T13:12:57;98394.91;;;30.61;33.23
40850;BME280;26571;41.610;25.380;2022-07-03T13:15:29;98382.50;;;30.74;32.77
40850;BME280;26571;41.610;25.380;2022-07-03T13:20:28;98407.13;;;31.10;31.76
40850;BME280;26571;41.610;25.380;2022-07-03T13:22:59;98393.41;;;31.01;31.26
40850;BME280;26571;41.610;25.380;2022-07-03T13:25:25;98406.09;;;31.06;30.84
40850;BME280;26571;41.610;25.380;2022-07-03T13:27:51;98395.66;;;31.13;31.12
40850;BME280;26571;41.610;25.380;2022-07-03T13:30:18;98396.13;;;31.15;30.11
40850;BME280;26571;41.610;25.380;2022-07-03T13:32:44;98396.66;;;31.03;30.26
40850;BME280;26571;41.610;25.380;2022-07-03T13:35:10;98398.22;;;30.91;30.01
40850;BME280;26571;41.610;25.380;2022-07-03T13:37:35;98369.00;;;30.69;30.44
40850;BME280;26571;41.610;25.380;2022-07-03T13:40:02;98408.53;;;30.94;32.07
40850;BME280;26571;41.610;25.380;2022-07-03T13:42:28;98396.91;;;30.88;30.98
40850;BME280;26571;41.610;25.380;2022-07-03T13:44:54;98400.47;;;30.88;31.80
40850;BME280;26571;41.610;25.380;2022-07-03T13:47:20;98391.19;;;30.89;31.38
40850;BME280;26571;41.610;25.380;2022-07-03T13:49:45;98377.78;;;30.79;31.53
40850;BME280;26571;41.610;25.380;2022-07-03T13:52:11;98373.75;;;30.77;31.90
40850;BME280;26571;41.610;25.380;2022-07-03T13:54:36;98399.34;;;30.89;31.61
40850;BME280;26571;41.610;25.380;2022-07-03T13:57:02;98385.94;;;30.79;31.39
40850;BME280;26571;41.610;25.380;2022-07-03T13:59:28;98392.78;;;30.91;31.84
40850;BME280;26571;41.610;25.380;2022-07-03T14:01:59;98391.41;;;30.93;33.17
40850;BME280;26571;41.610;25.380;2022-07-03T14:04:25;98379.56;;;30.70;30.48
40850;BME280;26571;41.610;25.380;2022-07-03T14:06:51;98392.97;;;30.80;30.35
40850;BME280;26571;41.610;25.380;2022-07-03T14:09:17;98397.22;;;30.86;30.34
40850;BME280;26571;41.610;25.380;2022-07-03T14:11:43;98391.91;;;30.95;30.93
40850;BME280;26571;41.610;25.380;2022-07-03T14:14:08;98397.81;;;30.97;30.72
40850;BME280;26571;41.610;25.380;2022-07-03T14:16:34;98384.22;;;30.97;31.46
40850;BME280;26571;41.610;25.380;2022-07-03T14:19:00;98390.19;;;30.99;31.45
40850;BME280;26571;41.610;25.380;2022-07-03T14:21:28;98387.66;;;31.03;31.92
40850;BME280;26571;41.610;25.380;2022-07-03T14:23:54;98394.31;;;30.97;29.36
40850;BME280;26571;41.610;25.380;2022-07-03T14:26:19;98388.38;;;30.95;29.23
40850;BME280;26571;41.610;25.380;2022-07-03T14:29:05;98389.97;;;30.96;30.46
40850;BME280;26571;41.610;25.380;2022-07-03T14:31:48;98394.72;;;31.04;30.56
40850;BME280;26571;41.610;25.380;2022-07-03T14:34:32;98356.13;;;30.88;30.37
40850;BME280;26571;41.610;25.380;2022-07-03T14:36:58;98380.22;;;31.08;30.47
40850;BME280;26571;41.610;25.380;2022-07-03T14:39:23;98378.69;;;31.02;31.63